Time;durP1;ratioP1;P1;durP2;ratioP2;P2;SDS_P1;SDS_P2;PMS_P1;PMS_P2;Temp;Humidity;BMP_temperature;BMP_pressure;BME280_temperature;BME280_humidity;BME280_pressure;Samples;Min_cycle;Max_cycle;Signal;HPM_P1;HPM_P2
2022/11/05 00:10:20;;;;;;;10.50;5.60;;;;;;;;;;5017953;28;20090;-69
2022/11/05 00:18:15;;;;;;;10.83;5.50;;;;;;;;;;5017548;28;20037;-68
2022/11/05 00:20:40;;;;;;;10.40;5.73;;;;;;;;;;5001260;28;20070;-68
2022/11/05 00:25:57;;;;;;;11.40;6.30;;;;;;;;;;5017765;28;20533;-71
2022/11/05 00:28:23;;;;;;;9.67;6.00;;;;;;;;;;5017603;28;20060;-69
2022/11/05 00:30:49;;;;;;;10.82;5.95;;;;;;;;;;5034101;28;20116;-69
2022/11/05 00:33:15;;;;;;;12.10;6.20;;;;;;;;;;5001181;28;20206;-68
2022/11/05 00:35:41;;;;;;;12.53;5.73;;;;;;;;;;4986316;28;20099;-68
2022/11/05 00:38:08;;;;;;;9.75;5.85;;;;;;;;;;4985745;28;20057;-68
2022/11/05 00:40:34;;;;;;;6.82;5.13;;;;;;;;;;5001513;28;20120;-68
2022/11/05 00:45:44;;;;;;;9.23;5.50;;;;;;;;;;5001309;28;20037;-68
2022/11/05 00:50:54;;;;;;;7.78;5.00;;;;;;;;;;5000854;28;20049;-69
2022/11/05 00:53:19;;;;;;;8.07;4.38;;;;;;;;;;4985249;28;20041;-68
2022/11/05 00:55:45;;;;;;;6.35;4.32;;;;;;;;;;4985196;28;20033;-68
2022/11/05 00:58:12;;;;;;;5.00;3.40;;;;;;;;;;5017848;28;20037;-68
2022/11/05 01:00:40;;;;;;;5.80;3.63;;;;;;;;;;4985066;28;20139;-66
2022/11/05 01:03:07;;;;;;;4.22;3.13;;;;;;;;;;4985020;28;20069;-67
2022/11/05 01:05:33;;;;;;;5.78;3.22;;;;;;;;;;5000673;28;20038;-67
2022/11/05 01:07:59;;;;;;;3.45;2.80;;;;;;;;;;5001099;28;20052;-67
2022/11/05 01:10:25;;;;;;;4.60;3.13;;;;;;;;;;4985096;28;20041;-67
2022/11/05 01:12:51;;;;;;;7.22;3.40;;;;;;;;;;4984987;28;20144;-67
2022/11/05 01:15:17;;;;;;;6.38;3.03;;;;;;;;;;4983176;28;20475;-67
2022/11/05 01:17:43;;;;;;;4.20;2.90;;;;;;;;;;5017294;28;20032;-68
2022/11/05 01:20:09;;;;;;;5.43;2.70;;;;;;;;;;5000966;28;20037;-67
2022/11/05 01:22:35;;;;;;;3.57;2.57;;;;;;;;;;5017345;28;20052;-67
2022/11/05 01:25:00;;;;;;;4.97;2.80;;;;;;;;;;5017297;28;20436;-66
2022/11/05 01:27:26;;;;;;;3.00;2.70;;;;;;;;;;5001175;28;20041;-67
2022/11/05 01:29:52;;;;;;;6.20;2.63;;;;;;;;;;4984869;28;20502;-68
2022/11/05 01:32:17;;;;;;;3.03;2.50;;;;;;;;;;4984421;28;20069;-68
2022/11/05 01:34:43;;;;;;;2.75;2.20;;;;;;;;;;4990824;28;20149;-68
2022/11/05 01:37:08;;;;;;;3.70;2.17;;;;;;;;;;5001852;28;20044;-69
2022/11/05 01:39:34;;;;;;;3.37;2.60;;;;;;;;;;5001766;28;20118;-68
2022/11/05 01:41:59;;;;;;;2.60;2.20;;;;;;;;;;5001790;28;20363;-68
2022/11/05 01:44:46;;;;;;;2.95;2.42;;;;;;;;;;5035024;28;20048;-68
2022/11/05 01:47:32;;;;;;;2.88;2.22;;;;;;;;;;5018413;28;20037;-68
2022/11/05 01:49:59;;;;;;;3.87;2.20;;;;;;;;;;5018149;28;20144;-68
2022/11/05 01:52:26;;;;;;;6.17;2.10;;;;;;;;;;5003381;28;20063;-69
2022/11/05 01:54:51;;;;;;;2.80;2.15;;;;;;;;;;5003799;28;20137;-69
2022/11/05 01:57:17;;;;;;;2.97;2.30;;;;;;;;;;5003564;28;20119;-69
2022/11/05 01:59:45;;;;;;;4.67;2.43;;;;;;;;;;5003487;28;20044;-68
2022/11/05 02:02:11;;;;;;;2.87;2.13;;;;;;;;;;5036433;28;20037;-69
2022/11/05 02:04:49;;;;;;;5.30;2.50;;;;;;;;;;5003584;28;20033;-69
2022/11/05 02:07:16;;;;;;;2.93;2.37;;;;;;;;;;5019678;28;20037;-69
2022/11/05 02:09:41;;;;;;;3.70;2.40;;;;;;;;;;5036441;28;20029;-69
2022/11/05 02:12:08;;;;;;;2.47;2.28;;;;;;;;;;5003372;28;20051;-69
2022/11/05 02:14:34;;;;;;;3.90;2.60;;;;;;;;;;5019770;28;20037;-69
2022/11/05 02:17:18;;;;;;;3.10;2.27;;;;;;;;;;5019544;28;20044;-68
2022/11/05 02:20:06;;;;;;;3.83;2.50;;;;;;;;;;5003412;28;20033;-69
2022/11/05 02:22:38;;;;;;;2.60;2.40;;;;;;;;;;5030472;28;20497;-69
2022/11/05 02:25:04;;;;;;;2.83;2.30;;;;;;;;;;5019768;28;20047;-69
2022/11/05 02:27:58;;;;;;;3.40;2.00;;;;;;;;;;5003368;28;20124;-69
2022/11/05 02:30:36;;;;;;;2.93;2.20;;;;;;;;;;5019621;28;20032;-68
2022/11/05 02:33:02;;;;;;;2.53;2.30;;;;;;;;;;5002994;28;20135;-69
2022/11/05 02:35:55;;;;;;;3.27;2.37;;;;;;;;;;5002952;28;20132;-68
2022/11/05 02:38:24;;;;;;;2.97;2.20;;;;;;;;;;5002806;28;20044;-68
2022/11/05 02:40:58;;;;;;;3.17;2.30;;;;;;;;;;5002837;28;20040;-68
2022/11/05 02:43:27;;;;;;;3.27;2.40;;;;;;;;;;5019075;28;20390;-68
2022/11/05 02:45:56;;;;;;;3.30;2.27;;;;;;;;;;5035480;28;20047;-67
2022/11/05 02:48:21;;;;;;;3.90;2.47;;;;;;;;;;5002727;28;20451;-67
2022/11/05 02:50:47;;;;;;;2.85;2.15;;;;;;;;;;5002603;28;20040;-68
2022/11/05 02:53:15;;;;;;;3.17;2.33;;;;;;;;;;5002623;28;20037;-68
2022/11/05 02:55:41;;;;;;;4.97;2.27;;;;;;;;;;5018769;28;20037;-67
2022/11/05 02:58:07;;;;;;;2.87;2.20;;;;;;;;;;5002164;28;20406;-69
2022/11/05 03:00:36;;;;;;;4.07;2.10;;;;;;;;;;5002213;28;20032;-70
2022/11/05 03:03:02;;;;;;;3.70;2.10;;;;;;;;;;5018907;28;20083;-70
2022/11/05 03:05:35;;;;;;;2.13;1.87;;;;;;;;;;5018920;28;20028;-69
2022/11/05 03:08:06;;;;;;;3.40;2.10;;;;;;;;;;5018954;28;20391;-68
2022/11/05 03:10:32;;;;;;;4.07;2.20;;;;;;;;;;5018875;28;20029;-69
2022/11/05 03:13:05;;;;;;;3.93;2.10;;;;;;;;;;5018797;28;20051;-69
2022/11/05 03:15:43;;;;;;;6.43;2.40;;;;;;;;;;5035561;28;20049;-68
2022/11/05 03:18:08;;;;;;;3.53;2.77;;;;;;;;;;5001804;28;20040;-69
2022/11/05 03:20:34;;;;;;;3.20;2.90;;;;;;;;;;5001955;28;20036;-69
2022/11/05 03:23:00;;;;;;;4.47;2.67;;;;;;;;;;5018573;28;20119;-69
2022/11/05 03:25:29;;;;;;;4.20;2.50;;;;;;;;;;5018228;28;20040;-68
2022/11/05 03:27:57;;;;;;;3.27;2.60;;;;;;;;;;5018185;28;20056;-68
2022/11/05 03:30:24;;;;;;;4.50;3.00;;;;;;;;;;5001737;28;20028;-68
2022/11/05 03:32:53;;;;;;;4.60;2.90;;;;;;;;;;5001620;28;20048;-68
2022/11/05 03:35:18;;;;;;;5.37;2.90;;;;;;;;;;5001481;28;20118;-68
2022/11/05 03:37:46;;;;;;;3.83;3.00;;;;;;;;;;5001650;28;20029;-68
2022/11/05 03:40:13;;;;;;;4.03;3.17;;;;;;;;;;5018105;28;20033;-68
2022/11/05 03:42:40;;;;;;;4.63;3.17;;;;;;;;;;5001557;28;20037;-68
2022/11/05 03:45:12;;;;;;;4.37;3.10;;;;;;;;;;5001516;28;20033;-68
2022/11/05 03:47:39;;;;;;;4.83;2.90;;;;;;;;;;5017904;28;20059;-68
2022/11/05 03:50:08;;;;;;;3.60;2.87;;;;;;;;;;5034349;28;20045;-68
2022/11/05 03:52:39;;;;;;;3.77;2.70;;;;;;;;;;5001644;28;20044;-68
2022/11/05 03:55:04;;;;;;;3.45;2.65;;;;;;;;;;5001701;28;20052;-68
2022/11/05 03:57:33;;;;;;;2.77;2.43;;;;;;;;;;5001762;28;20041;-67
2022/11/05 03:59:59;;;;;;;4.23;2.70;;;;;;;;;;5017599;28;20037;-68
2022/11/05 04:02:25;;;;;;;3.30;2.43;;;;;;;;;;5017815;28;20132;-68
2022/11/05 04:04:51;;;;;;;3.83;2.30;;;;;;;;;;5018125;28;20074;-68
2022/11/05 04:17:05;;;;;;;3.53;2.20;;;;;;;;;;5021523;28;20040;-68
2022/11/05 04:18:18;;;;;;;4.47;2.20;;;;;;;;;;5037949;28;20087;-68
2022/11/05 04:26:14;;;;;;;3.27;1.97;;;;;;;;;;5021398;28;20043;-69
2022/11/05 04:31:24;;;;;;;4.97;2.20;;;;;;;;;;5021198;28;20033;-67
2022/11/05 04:33:49;;;;;;;5.93;2.05;;;;;;;;;;5004935;28;20368;-68
2022/11/05 04:36:16;;;;;;;3.60;1.90;;;;;;;;;;5021274;28;20541;-68
2022/11/05 04:38:41;;;;;;;3.10;1.90;;;;;;;;;;5037648;28;20044;-67
2022/11/05 04:41:12;;;;;;;2.43;2.00;;;;;;;;;;5004384;28;20334;-67
2022/11/05 04:43:37;;;;;;;4.35;2.05;;;;;;;;;;5019188;28;20059;-67
2022/11/05 04:46:03;;;;;;;2.10;1.90;;;;;;;;;;5004094;28;20033;-69
2022/11/05 04:48:29;;;;;;;2.03;1.77;;;;;;;;;;5004781;28;20068;-68
2022/11/05 04:50:54;;;;;;;2.73;2.00;;;;;;;;;;5004795;28;20070;-69
2022/11/05 04:53:20;;;;;;;2.27;1.73;;;;;;;;;;5020952;28;20136;-68
2022/11/05 04:55:45;;;;;;;2.47;1.87;;;;;;;;;;5004478;28;20056;-68
2022/11/05 04:58:11;;;;;;;3.37;1.90;;;;;;;;;;5004351;28;20131;-68
2022/11/05 05:00:36;;;;;;;4.30;2.00;;;;;;;;;;5021038;28;20033;-68
2022/11/05 05:03:02;;;;;;;3.57;2.07;;;;;;;;;;5004449;28;20123;-66
2022/11/05 05:05:29;;;;;;;2.70;2.13;;;;;;;;;;5004295;28;20025;-67
2022/11/05 05:07:59;;;;;;;3.30;2.13;;;;;;;;;;5020695;28;20053;-67
2022/11/05 05:10:25;;;;;;;2.95;2.22;;;;;;;;;;5020905;28;20029;-67
2022/11/05 05:12:50;;;;;;;2.60;2.20;;;;;;;;;;5020707;28;20080;-67
2022/11/05 05:15:16;;;;;;;3.33;2.20;;;;;;;;;;5004424;28;20044;-67
2022/11/05 05:17:41;;;;;;;3.73;2.47;;;;;;;;;;5004188;28;20075;-67
2022/11/05 05:22:52;;;;;;;3.13;2.33;;;;;;;;;;5036333;28;20037;-67
2022/11/05 05:25:18;;;;;;;4.00;2.30;;;;;;;;;;5020172;28;20383;-67
2022/11/05 05:27:43;;;;;;;6.27;2.40;;;;;;;;;;5003965;28;20033;-67
2022/11/05 05:30:09;;;;;;;4.37;2.33;;;;;;;;;;5004303;28;20025;-67
2022/11/05 05:32:35;;;;;;;3.40;2.73;;;;;;;;;;5004033;28;20089;-67
2022/11/05 05:35:00;;;;;;;4.40;2.50;;;;;;;;;;4995737;28;20102;-67
2022/11/05 05:37:27;;;;;;;4.50;2.90;;;;;;;;;;4984423;28;20399;-67
2022/11/05 05:39:52;;;;;;;4.50;2.20;;;;;;;;;;4984315;28;20033;-67
2022/11/05 05:42:20;;;;;;;2.90;2.20;;;;;;;;;;4965947;28;20041;-68
2022/11/05 05:44:45;;;;;;;2.00;1.80;;;;;;;;;;4961847;28;20388;-68
2022/11/05 05:47:12;;;;;;;3.87;2.00;;;;;;;;;;4963242;28;20026;-68
2022/11/05 05:49:38;;;;;;;4.17;1.80;;;;;;;;;;4965002;28;20438;-68
2022/11/05 05:52:04;;;;;;;1.87;1.70;;;;;;;;;;4964678;28;20045;-69
2022/11/05 05:54:29;;;;;;;5.10;2.20;;;;;;;;;;4961945;28;20522;-67
2022/11/05 05:56:55;;;;;;;2.40;2.17;;;;;;;;;;4970710;28;20044;-69
2022/11/05 05:59:22;;;;;;;2.93;2.20;;;;;;;;;;4953048;28;20486;-69
2022/11/05 06:01:47;;;;;;;3.63;2.57;;;;;;;;;;4961459;28;20041;-68
2022/11/05 06:04:13;;;;;;;4.83;2.43;;;;;;;;;;4978385;28;20030;-70
2022/11/05 06:06:39;;;;;;;3.33;2.13;;;;;;;;;;4984970;28;20050;-70
2022/11/05 06:09:04;;;;;;;3.60;2.50;;;;;;;;;;4954956;28;20096;-68
2022/11/05 06:11:30;;;;;;;9.43;3.93;;;;;;;;;;4960774;28;20138;-66
2022/11/05 06:13:56;;;;;;;6.87;3.80;;;;;;;;;;4951999;28;20436;-65
2022/11/05 06:16:22;;;;;;;5.00;2.77;;;;;;;;;;5015865;28;20033;-65
2022/11/05 06:18:47;;;;;;;4.20;2.80;;;;;;;;;;4983516;28;20460;-67
2022/11/05 06:21:14;;;;;;;4.50;3.10;;;;;;;;;;4983532;28;20044;-67
2022/11/05 06:23:41;;;;;;;7.70;3.40;;;;;;;;;;4983186;28;20041;-67
2022/11/05 06:26:08;;;;;;;12.43;6.57;;;;;;;;;;5004939;28;20084;-68
2022/11/05 06:28:34;;;;;;;10.10;4.80;;;;;;;;;;4984030;28;20037;-68
2022/11/05 06:31:00;;;;;;;11.60;4.90;;;;;;;;;;4953603;28;20042;-69
2022/11/05 06:33:26;;;;;;;9.50;4.33;;;;;;;;;;4976200;28;20369;-68
2022/11/05 06:35:57;;;;;;;9.00;4.43;;;;;;;;;;4991058;28;20064;-60
2022/11/05 06:38:22;;;;;;;9.23;4.20;;;;;;;;;;4988679;28;20026;-60
2022/11/05 06:40:48;;;;;;;8.33;3.80;;;;;;;;;;5004967;28;20472;-59
2022/11/05 06:43:13;;;;;;;2.83;2.30;;;;;;;;;;5003395;28;20167;-61
2022/11/05 06:45:39;;;;;;;5.50;2.73;;;;;;;;;;5005806;28;20045;-60
2022/11/05 06:48:05;;;;;;;6.17;2.90;;;;;;;;;;5028778;28;20045;-63
2022/11/05 06:50:30;;;;;;;10.68;4.15;;;;;;;;;;4987342;28;20032;-62
2022/11/05 06:52:56;;;;;;;8.50;4.40;;;;;;;;;;5013198;28;20037;-61
2022/11/05 06:55:22;;;;;;;6.23;3.37;;;;;;;;;;5021041;28;20558;-61
2022/11/05 06:57:48;;;;;;;7.47;2.93;;;;;;;;;;4990724;28;20056;-69
2022/11/05 07:00:14;;;;;;;5.20;3.50;;;;;;;;;;5013418;28;20042;-61
2022/11/05 07:02:39;;;;;;;5.60;3.07;;;;;;;;;;5011821;28;20030;-61
2022/11/05 07:05:06;;;;;;;6.30;3.17;;;;;;;;;;5004222;28;20045;-62
2022/11/05 07:07:32;;;;;;;5.97;3.10;;;;;;;;;;5004883;28;20167;-62
2022/11/05 07:09:57;;;;;;;3.95;2.60;;;;;;;;;;4989732;28;20380;-56
2022/11/05 07:12:23;;;;;;;5.90;2.50;;;;;;;;;;5002404;28;20041;-60
2022/11/05 07:14:48;;;;;;;3.15;2.25;;;;;;;;;;4996222;28;20444;-61
2022/11/05 07:17:15;;;;;;;3.38;2.42;;;;;;;;;;4987819;28;20030;-60
2022/11/05 07:19:41;;;;;;;6.80;3.03;;;;;;;;;;5003139;28;20113;-61
2022/11/05 07:22:06;;;;;;;4.47;2.67;;;;;;;;;;4988270;28;20117;-61
2022/11/05 07:24:32;;;;;;;5.90;2.70;;;;;;;;;;5003389;28;20034;-63
2022/11/05 07:26:57;;;;;;;6.05;2.58;;;;;;;;;;5002908;28;20041;-64
2022/11/05 07:29:23;;;;;;;4.80;2.20;;;;;;;;;;4988281;28;20091;-63
2022/11/05 07:31:48;;;;;;;7.35;2.83;;;;;;;;;;5002732;28;20081;-64
2022/11/05 07:34:14;;;;;;;3.15;2.35;;;;;;;;;;4998411;28;20037;-63
2022/11/05 07:36:40;;;;;;;4.00;2.22;;;;;;;;;;5012606;28;20124;-65
2022/11/05 07:39:05;;;;;;;3.70;1.98;;;;;;;;;;5027823;28;20037;-63
2022/11/05 07:41:31;;;;;;;7.78;3.45;;;;;;;;;;5011228;28;20056;-62
2022/11/05 07:43:56;;;;;;;3.38;2.28;;;;;;;;;;4970607;28;20528;-62
2022/11/05 07:46:22;;;;;;;2.38;1.80;;;;;;;;;;4996952;28;20531;-63
2022/11/05 07:48:47;;;;;;;4.57;2.00;;;;;;;;;;4986144;28;20037;-62
2022/11/05 07:51:13;;;;;;;4.97;1.80;;;;;;;;;;4997949;28;20048;-64
2022/11/05 07:53:38;;;;;;;4.20;2.65;;;;;;;;;;4993962;28;20048;-62
2022/11/05 07:56:04;;;;;;;5.78;2.08;;;;;;;;;;5001461;28;20049;-59
2022/11/05 07:58:30;;;;;;;2.92;2.20;;;;;;;;;;4995150;28;20033;-64
2022/11/05 08:00:55;;;;;;;3.20;2.00;;;;;;;;;;4962544;28;20100;-63
2022/11/05 08:03:21;;;;;;;7.57;2.33;;;;;;;;;;5027639;28;20045;-60
2022/11/05 08:05:47;;;;;;;4.32;2.00;;;;;;;;;;4962415;28;20034;-63
2022/11/05 08:08:13;;;;;;;4.35;2.13;;;;;;;;;;4995513;28;20372;-64
2022/11/05 08:10:39;;;;;;;2.78;2.10;;;;;;;;;;4962741;28;20034;-61
2022/11/05 08:13:05;;;;;;;2.47;1.88;;;;;;;;;;5027456;28;20127;-64
2022/11/05 08:15:31;;;;;;;4.75;1.63;;;;;;;;;;4978564;28;20526;-63
2022/11/05 08:18:02;;;;;;;10.15;2.17;;;;;;;;;;4994637;28;20037;-63
2022/11/05 08:20:27;;;;;;;3.22;1.83;;;;;;;;;;4994722;28;20029;-62
2022/11/05 08:22:53;;;;;;;2.75;1.90;;;;;;;;;;4978340;28;20061;-64
2022/11/05 08:25:19;;;;;;;5.75;2.10;;;;;;;;;;4978407;28;20100;-64
2022/11/05 08:27:44;;;;;;;3.50;2.30;;;;;;;;;;5010638;28;20076;-63
2022/11/05 08:30:10;;;;;;;4.30;2.50;;;;;;;;;;4994730;28;20070;-64
2022/11/05 08:32:36;;;;;;;5.32;2.33;;;;;;;;;;4961884;28;20107;-62
2022/11/05 08:35:01;;;;;;;3.47;2.17;;;;;;;;;;5026711;28;20484;-61
2022/11/05 08:37:29;;;;;;;4.35;2.35;;;;;;;;;;5020616;28;20040;-63
2022/11/05 08:39:55;;;;;;;6.85;2.53;;;;;;;;;;4970502;28;20037;-64
2022/11/05 08:42:20;;;;;;;10.05;2.40;;;;;;;;;;5002107;28;20033;-63
2022/11/05 08:44:46;;;;;;;3.35;2.45;;;;;;;;;;4987520;28;20091;-65
2022/11/05 08:47:11;;;;;;;3.88;2.30;;;;;;;;;;5026411;28;20117;-65
2022/11/05 08:49:37;;;;;;;3.05;2.50;;;;;;;;;;4983905;28;20156;-63
2022/11/05 08:52:02;;;;;;;7.53;2.60;;;;;;;;;;4968845;28;20069;-63
2022/11/05 08:54:28;;;;;;;5.40;3.10;;;;;;;;;;4967868;28;20702;-64
2022/11/05 08:56:53;;;;;;;5.68;2.90;;;;;;;;;;4976343;28;20048;-65
2022/11/05 08:59:19;;;;;;;4.45;2.70;;;;;;;;;;5013970;28;20112;-64
2022/11/05 09:01:45;;;;;;;4.22;2.70;;;;;;;;;;4980582;28;20070;-64
2022/11/05 09:04:10;;;;;;;4.65;2.65;;;;;;;;;;5015987;28;20164;-64
2022/11/05 09:06:36;;;;;;;7.93;2.65;;;;;;;;;;5006317;28;20063;-64
2022/11/05 09:09:01;;;;;;;6.70;3.80;;;;;;;;;;4988743;28;20440;-63
2022/11/05 09:11:27;;;;;;;9.48;2.90;;;;;;;;;;5024638;28;20029;-64
2022/11/05 09:13:52;;;;;;;6.07;2.53;;;;;;;;;;5014591;28;20409;-62
2022/11/05 09:16:19;;;;;;;8.85;2.60;;;;;;;;;;4973947;28;20124;-64
2022/11/05 09:18:48;;;;;;;4.18;2.50;;;;;;;;;;4997192;28;20042;-65
2022/11/05 09:21:14;;;;;;;6.10;2.67;;;;;;;;;;4998129;28;20547;-65
2022/11/05 09:23:40;;;;;;;3.75;2.88;;;;;;;;;;5023639;28;20103;-62
2022/11/05 09:26:06;;;;;;;4.88;2.92;;;;;;;;;;4990890;28;20033;-64
2022/11/05 09:28:32;;;;;;;3.65;2.20;;;;;;;;;;4972933;28;20137;-64
2022/11/05 09:30:57;;;;;;;6.40;2.33;;;;;;;;;;5022444;28;20041;-64
2022/11/05 09:33:24;;;;;;;15.02;2.60;;;;;;;;;;4974313;28;20052;-64
2022/11/05 09:35:50;;;;;;;4.20;2.80;;;;;;;;;;4974172;28;20054;-64
2022/11/05 09:38:16;;;;;;;8.40;3.00;;;;;;;;;;4982793;28;20471;-64
2022/11/05 09:40:48;;;;;;;7.85;3.67;;;;;;;;;;5006516;28;20026;-63
2022/11/05 09:43:19;;;;;;;6.85;3.10;;;;;;;;;;4990012;28;20033;-62
2022/11/05 09:45:47;;;;;;;5.25;2.97;;;;;;;;;;4982250;28;20094;-64
2022/11/05 09:48:14;;;;;;;7.88;3.40;;;;;;;;;;4990065;28;20029;-63
2022/11/05 09:50:42;;;;;;;5.78;3.92;;;;;;;;;;4991342;28;20037;-62
2022/11/05 09:53:09;;;;;;;4.50;2.70;;;;;;;;;;5006523;28;20100;-63
2022/11/05 09:55:37;;;;;;;8.20;2.92;;;;;;;;;;5022985;28;20033;-64
2022/11/05 09:58:14;;;;;;;9.25;2.80;;;;;;;;;;5005920;28;20037;-63
2022/11/05 10:00:40;;;;;;;3.53;2.67;;;;;;;;;;4987665;28;20448;-64
2022/11/05 10:03:09;;;;;;;6.07;2.95;;;;;;;;;;4990971;28;20041;-63
2022/11/05 10:05:36;;;;;;;3.65;2.60;;;;;;;;;;4995976;28;20037;-63
2022/11/05 10:08:04;;;;;;;8.30;3.40;;;;;;;;;;4986876;28;20512;-64
2022/11/05 10:10:38;;;;;;;8.90;2.75;;;;;;;;;;4980846;28;20037;-63
2022/11/05 10:13:06;;;;;;;9.40;2.90;;;;;;;;;;4997829;28;20045;-62
2022/11/05 10:15:33;;;;;;;8.93;2.88;;;;;;;;;;4990651;28;20403;-62
2022/11/05 10:18:05;;;;;;;7.43;3.33;;;;;;;;;;5005344;28;20447;-64
2022/11/05 10:20:37;;;;;;;5.35;2.90;;;;;;;;;;4997027;28;20357;-63
2022/11/05 10:23:12;;;;;;;5.70;3.47;;;;;;;;;;4996017;28;20384;-63
2022/11/05 10:25:39;;;;;;;10.13;3.30;;;;;;;;;;5010773;28;20128;-64
2022/11/05 10:28:06;;;;;;;8.02;2.88;;;;;;;;;;4972965;28;20125;-64
2022/11/05 10:30:32;;;;;;;7.47;3.47;;;;;;;;;;5004813;28;20029;-64
2022/11/05 10:32:59;;;;;;;13.35;3.28;;;;;;;;;;5023221;28;20480;-64
2022/11/05 10:35:27;;;;;;;6.65;3.30;;;;;;;;;;5023167;28;20571;-64
2022/11/05 10:37:54;;;;;;;5.93;3.15;;;;;;;;;;5005167;28;20491;-65
2022/11/05 10:40:44;;;;;;;10.02;3.38;;;;;;;;;;5011763;28;20064;-64
2022/11/05 10:43:18;;;;;;;6.10;2.80;;;;;;;;;;4996024;28;20117;-65
2022/11/05 10:46:02;;;;;;;7.40;2.83;;;;;;;;;;4979748;28;20685;-63
2022/11/05 10:48:27;;;;;;;6.05;3.47;;;;;;;;;;4995805;28;20375;-64
2022/11/05 10:50:53;;;;;;;8.45;3.38;;;;;;;;;;4979448;28;20042;-63
2022/11/05 10:53:40;;;;;;;5.07;3.22;;;;;;;;;;4979744;28;20464;-64
2022/11/05 10:56:25;;;;;;;10.00;5.03;;;;;;;;;;4979493;28;20169;-64
2022/11/05 10:58:56;;;;;;;9.23;4.22;;;;;;;;;;4995014;28;20483;-63
2022/11/05 11:01:22;;;;;;;13.48;6.32;;;;;;;;;;4979536;28;20034;-65
2022/11/05 11:03:50;;;;;;;8.00;5.38;;;;;;;;;;5029376;28;20463;-66
2022/11/05 11:06:33;;;;;;;16.67;6.03;;;;;;;;;;4979399;28;20045;-67
2022/11/05 11:09:00;;;;;;;9.73;5.00;;;;;;;;;;4981672;28;20522;-66
2022/11/05 11:11:28;;;;;;;7.45;4.20;;;;;;;;;;5000370;28;20092;-65
2022/11/05 11:13:57;;;;;;;11.18;4.07;;;;;;;;;;5021533;28;20044;-64
2022/11/05 11:16:24;;;;;;;7.68;3.67;;;;;;;;;;5033090;28;20047;-64
2022/11/05 11:18:53;;;;;;;6.15;3.70;;;;;;;;;;5032887;28;20037;-65
2022/11/05 11:21:22;;;;;;;5.13;3.13;;;;;;;;;;4999907;28;20127;-65
2022/11/05 11:23:54;;;;;;;6.03;3.08;;;;;;;;;;5050936;28;20051;-65
2022/11/05 11:26:20;;;;;;;6.25;4.00;;;;;;;;;;5033433;28;20037;-64
2022/11/05 11:28:47;;;;;;;5.72;3.28;;;;;;;;;;5051134;28;20041;-64
2022/11/05 11:31:15;;;;;;;9.95;4.00;;;;;;;;;;5016389;28;20121;-62
2022/11/05 11:33:42;;;;;;;8.38;4.13;;;;;;;;;;5030939;28;20044;-63
2022/11/05 11:36:09;;;;;;;9.82;3.90;;;;;;;;;;5048575;28;20203;-63
2022/11/05 11:38:35;;;;;;;12.52;5.05;;;;;;;;;;5048757;28;20040;-65
2022/11/05 11:41:10;;;;;;;11.90;4.25;;;;;;;;;;4998660;28;20364;-64
2022/11/05 11:43:37;;;;;;;9.85;3.60;;;;;;;;;;5014779;28;20045;-64
2022/11/05 11:46:06;;;;;;;8.93;3.55;;;;;;;;;;4999080;28;20375;-64
2022/11/05 11:48:33;;;;;;;6.28;3.60;;;;;;;;;;5016402;28;20589;-65
2022/11/05 11:51:13;;;;;;;12.93;3.80;;;;;;;;;;5016488;28;20048;-63
2022/11/05 11:53:39;;;;;;;11.73;4.97;;;;;;;;;;4999833;28;20041;-62
2022/11/05 11:56:11;;;;;;;7.18;4.15;;;;;;;;;;5033132;28;20090;-64
2022/11/05 11:58:44;;;;;;;8.93;3.90;;;;;;;;;;5033192;28;20039;-65
2022/11/05 12:01:22;;;;;;;7.35;4.20;;;;;;;;;;5031934;28;20325;-64
2022/11/05 12:03:49;;;;;;;9.93;3.90;;;;;;;;;;5012830;28;20047;-64
2022/11/05 12:06:15;;;;;;;7.30;3.80;;;;;;;;;;4996127;28;20075;-65
2022/11/05 12:08:40;;;;;;;9.55;4.03;;;;;;;;;;4996066;28;20061;-64
2022/11/05 12:11:06;;;;;;;10.45;4.10;;;;;;;;;;5012563;28;20048;-64
2022/11/05 12:13:37;;;;;;;13.48;4.20;;;;;;;;;;5012947;28;20041;-65
2022/11/05 12:16:03;;;;;;;10.65;4.18;;;;;;;;;;4997788;28;20420;-64
2022/11/05 12:18:34;;;;;;;5.68;3.58;;;;;;;;;;5000298;28;20134;-65
2022/11/05 12:21:26;;;;;;;6.82;3.95;;;;;;;;;;5000765;28;20036;-65
2022/11/05 12:24:00;;;;;;;13.40;4.55;;;;;;;;;;4985251;28;20041;-64
2022/11/05 12:26:44;;;;;;;9.77;3.78;;;;;;;;;;5000623;28;20537;-64
2022/11/05 12:29:13;;;;;;;9.85;3.63;;;;;;;;;;5000349;28;20492;-64
2022/11/05 12:31:51;;;;;;;7.40;3.97;;;;;;;;;;5000911;28;20044;-64
2022/11/05 12:34:16;;;;;;;12.45;3.80;;;;;;;;;;5037131;28;20444;-64
2022/11/05 12:36:54;;;;;;;11.52;3.72;;;;;;;;;;5020661;28;20609;-64
2022/11/05 12:39:49;;;;;;;8.52;3.33;;;;;;;;;;5004405;28;20075;-64
2022/11/05 12:42:15;;;;;;;8.30;4.18;;;;;;;;;;4995024;28;20164;-65
2022/11/05 12:45:13;;;;;;;9.10;3.53;;;;;;;;;;5003885;28;20412;-65
2022/11/05 12:47:49;;;;;;;12.25;4.15;;;;;;;;;;4981940;28;20387;-64
2022/11/05 12:50:15;;;;;;;10.07;4.10;;;;;;;;;;5020329;28;20106;-64
2022/11/05 12:52:43;;;;;;;11.95;4.10;;;;;;;;;;5003797;28;20483;-64
2022/11/05 12:55:14;;;;;;;12.10;5.35;;;;;;;;;;5020376;28;20036;-64
2022/11/05 12:57:40;;;;;;;10.23;4.53;;;;;;;;;;5035612;28;20041;-64
2022/11/05 13:00:07;;;;;;;9.02;4.15;;;;;;;;;;5020237;28;20466;-65
2022/11/05 13:02:36;;;;;;;11.30;5.35;;;;;;;;;;5019961;28;20048;-65
2022/11/05 13:05:21;;;;;;;12.75;4.93;;;;;;;;;;5019908;28;20029;-64
2022/11/05 13:08:25;;;;;;;7.95;5.50;;;;;;;;;;5019785;28;20045;-64
2022/11/05 13:10:53;;;;;;;8.23;4.75;;;;;;;;;;4960497;28;20050;-64
2022/11/05 13:13:24;;;;;;;8.57;4.78;;;;;;;;;;4975827;28;20057;-64
2022/11/05 13:15:51;;;;;;;11.38;4.97;;;;;;;;;;5000721;28;20045;-64
2022/11/05 13:18:20;;;;;;;11.70;4.70;;;;;;;;;;5020001;28;20033;-64
2022/11/05 13:20:49;;;;;;;18.38;5.70;;;;;;;;;;5019458;28;20045;-64
2022/11/05 13:23:34;;;;;;;11.95;5.38;;;;;;;;;;5003136;28;20481;-64
2022/11/05 13:26:04;;;;;;;18.70;7.10;;;;;;;;;;5036075;28;20037;-64
2022/11/05 13:28:56;;;;;;;18.05;6.20;;;;;;;;;;5018668;28;20205;-64
2022/11/05 13:31:28;;;;;;;12.82;5.22;;;;;;;;;;4969914;28;20061;-63
2022/11/05 13:33:55;;;;;;;13.07;4.97;;;;;;;;;;5009512;28;20038;-65
2022/11/05 13:39:14;;;;;;;8.65;5.35;;;;;;;;;;5011513;28;20033;-64
2022/11/05 13:41:51;;;;;;;7.50;5.20;;;;;;;;;;4994746;28;20072;-64
2022/11/05 13:44:20;;;;;;;7.30;5.10;;;;;;;;;;4978632;28;20041;-62
2022/11/05 13:46:53;;;;;;;16.92;5.07;;;;;;;;;;5011421;28;20045;-64
2022/11/05 13:49:31;;;;;;;12.02;4.63;;;;;;;;;;4995631;28;20460;-59
2022/11/05 13:52:00;;;;;;;8.05;4.53;;;;;;;;;;4980103;28;20033;-63
2022/11/05 13:54:37;;;;;;;10.35;4.65;;;;;;;;;;4996358;28;20057;-62
2022/11/05 13:57:12;;;;;;;8.13;4.78;;;;;;;;;;4996375;28;20423;-64
2022/11/05 13:59:53;;;;;;;15.25;5.65;;;;;;;;;;4996278;28;20033;-64
2022/11/05 14:02:21;;;;;;;13.13;6.00;;;;;;;;;;4996688;28;20464;-63
2022/11/05 14:04:48;;;;;;;12.45;7.55;;;;;;;;;;5012674;28;20045;-64
2022/11/05 14:07:19;;;;;;;15.40;8.18;;;;;;;;;;4997756;28;20042;-63
2022/11/05 14:09:47;;;;;;;15.82;8.93;;;;;;;;;;4993255;28;20041;-63
2022/11/05 14:12:34;;;;;;;16.13;8.15;;;;;;;;;;5008865;28;20045;-64
2022/11/05 14:15:08;;;;;;;16.45;5.82;;;;;;;;;;4993264;28;20075;-63
2022/11/05 14:17:53;;;;;;;10.82;4.70;;;;;;;;;;4992667;28;20106;-64
2022/11/05 14:20:31;;;;;;;13.25;4.75;;;;;;;;;;4983982;28;20054;-63
2022/11/05 14:23:15;;;;;;;9.70;4.95;;;;;;;;;;4990770;28;20033;-62
2022/11/05 14:25:41;;;;;;;9.85;4.90;;;;;;;;;;4984193;28;20128;-62
2022/11/05 14:28:25;;;;;;;9.00;5.03;;;;;;;;;;4964902;28;20137;-64
2022/11/05 14:30:52;;;;;;;10.85;5.50;;;;;;;;;;4977174;28;20038;-65
2022/11/05 14:33:23;;;;;;;9.50;5.20;;;;;;;;;;4999825;28;20052;-63
2022/11/05 14:35:49;;;;;;;19.30;5.78;;;;;;;;;;4984822;28;20087;-64
2022/11/05 14:38:21;;;;;;;15.43;6.70;;;;;;;;;;4985615;28;20045;-65
2022/11/05 14:40:47;;;;;;;22.80;6.93;;;;;;;;;;4968500;28;20030;-64
2022/11/05 14:43:13;;;;;;;12.37;5.33;;;;;;;;;;5000681;28;20341;-67
2022/11/05 14:45:53;;;;;;;11.38;5.25;;;;;;;;;;4970076;28;20048;-68
2022/11/05 14:48:39;;;;;;;11.27;6.78;;;;;;;;;;4984297;28;20037;-67
2022/11/05 14:51:24;;;;;;;10.32;5.97;;;;;;;;;;5001870;28;20030;-69
2022/11/05 14:53:56;;;;;;;13.32;5.30;;;;;;;;;;4991830;28;20100;-68
2022/11/05 14:56:22;;;;;;;9.32;4.97;;;;;;;;;;4970715;28;20060;-67
2022/11/05 14:58:48;;;;;;;12.45;4.97;;;;;;;;;;4990072;28;20391;-69
2022/11/05 15:01:13;;;;;;;8.52;5.03;;;;;;;;;;4969926;28;20057;-67
2022/11/05 15:03:39;;;;;;;7.15;4.70;;;;;;;;;;4994520;28;20049;-68
2022/11/05 15:06:18;;;;;;;12.73;5.07;;;;;;;;;;4986328;28;20072;-66
2022/11/05 15:08:47;;;;;;;10.00;4.88;;;;;;;;;;4999725;28;20065;-68
2022/11/05 15:11:22;;;;;;;10.98;4.88;;;;;;;;;;4970396;28;20123;-67
2022/11/05 15:13:55;;;;;;;20.55;5.22;;;;;;;;;;4984604;28;20036;-68
2022/11/05 15:16:41;;;;;;;10.15;4.03;;;;;;;;;;4986396;28;20060;-68
2022/11/05 15:19:33;;;;;;;10.35;4.18;;;;;;;;;;4993033;28;20488;-68
2022/11/05 15:22:00;;;;;;;5.75;3.85;;;;;;;;;;4966839;28;20045;-67
2022/11/05 15:24:29;;;;;;;6.47;4.18;;;;;;;;;;5002554;28;20045;-68
2022/11/05 15:27:01;;;;;;;11.20;4.25;;;;;;;;;;5008725;28;20062;-67
2022/11/05 15:29:27;;;;;;;8.07;4.30;;;;;;;;;;4978031;28;20034;-67
2022/11/05 15:31:53;;;;;;;13.70;4.40;;;;;;;;;;4972724;28;20045;-68
2022/11/05 15:34:21;;;;;;;13.00;4.63;;;;;;;;;;4982821;28;20026;-67
2022/11/05 15:36:49;;;;;;;11.35;4.65;;;;;;;;;;5002579;28;20060;-72